Strona główna
METAR-TAF:

METAR-TAF

Lotnisko :

Dole, Francja

Szerokość geograficzna: 47-02-34N, Długość geograficzna: 005-26-06E, wysokość: 196 m

Aktualna obserwacja pogody

Raport powstał 20 minut temu, godzina 11:30 UTC
Wiatr 8 kt od zachodnio-południowy zachód, zmienny między południowo-południowy zachód i zachód
Temperatura 28°C
Wilgotność 40%
Ciśnienie 1014 hPa
Widzialność 10 km lub więcej
Brak chmur poniżej 1500 m i brak chmur cumulonimbus

METAR: LFGJ 181130Z AUTO 24008KT 210V270 CAVOK 28/13 Q1014 TEMPO FEW075TCU

czas: 13:50 (11:50 UTC)

Prognoza

Raport powstał 50 minut temu, godzina 11:00 UTC
Prognoza ważna od 18 godzina 12 UTC do 18 godzina 21 UTC
Wiatr 10 kt od południowy zachód
Widzialność 10 km lub więcej
Brak chmur poniżej 1500 m i brak chmur cumulonimbus
Prawdopodobieństwo 40% :
Przejściowo
od 18 godzina 12 UTC do 18 godzina 15 UTC
Mało chmury na wysokości 7500 ft, Cumulusy wypiętrznone.

TAF: LFGJ 181100Z 1812/1821 23010KT CAVOK PROB40 TEMPO 1812/1815 FEW075TCU

Obserwacja i prognoza pogody dla ponad 4000 lotnisk (raport METAR i TAF).

Dostępne stacje oznaczono żółtymi i czerwonymi punktami na mapie.

Najedź kursorem aby zobaczyć nazwę stacji.

Kliknij aby zobaczyć obserwacje i prognozy pogody.

Aby zmienić mapę: kliknij na zielony przycisk z czarnym krzyżykiem, aby powiększyć; na zielony przycisk z myślnikiem, aby pomniejszyć; na zielone strzałki, aby przejść do map sąsiednich.


METAR-TAF: